Time;durP1;ratioP1;P1;durP2;ratioP2;P2;SDS_P1;SDS_P2;PMS_P1;PMS_P2;Temp;Humidity;BMP_temperature;BMP_pressure;BME280_temperature;BME280_humidity;BME280_pressure;Samples;Min_cycle;Max_cycle;Signal;HPM_P1;HPM_P2
2021/05/22 00:00:10;;;;;;;3.13;1.67;;;13.80;75.40;;;;;;2097792;28;20037;-71
2021/05/22 00:01:11;;;;;;;2.05;1.70;;;13.80;75.60;;;;;;2098042;28;20105;-70
2021/05/22 00:02:12;;;;;;;1.83;1.60;;;13.80;76.40;;;;;;2097988;28;20042;-71
2021/05/22 00:03:13;;;;;;;2.38;1.60;;;13.70;75.80;;;;;;2097997;28;20484;-71
2021/05/22 00:04:13;;;;;;;2.15;1.75;;;13.80;76.20;;;;;;2088860;28;20040;-72
2021/05/22 00:05:15;;;;;;;2.15;1.65;;;13.80;76.20;;;;;;2089334;28;20096;-70
2021/05/22 00:06:16;;;;;;;2.00;1.80;;;13.80;76.40;;;;;;2098174;28;20077;-69
2021/05/22 00:07:17;;;;;;;2.00;1.77;;;13.80;76.70;;;;;;2096931;28;20071;-72
2021/05/22 00:08:19;;;;;;;2.20;1.80;;;13.70;76.60;;;;;;2097909;28;20028;-71
2021/05/22 00:09:19;;;;;;;3.20;1.90;;;13.80;76.50;;;;;;2097804;28;20052;-72
2021/05/22 00:10:20;;;;;;;3.28;1.60;;;13.70;76.50;;;;;;2088986;28;20029;-72
2021/05/22 00:11:21;;;;;;;2.45;1.70;;;13.70;76.50;;;;;;2089160;28;20029;-72
2021/05/22 00:12:22;;;;;;;3.40;1.65;;;13.70;77.40;;;;;;2097995;28;20031;-70
2021/05/22 00:13:22;;;;;;;1.70;1.60;;;13.70;76.70;;;;;;2098163;28;20025;-72
2021/05/22 00:14:23;;;;;;;1.70;1.60;;;13.70;76.60;;;;;;2088930;28;20686;-72
2021/05/22 00:15:25;;;;;;;1.80;1.70;;;13.70;76.70;;;;;;2089112;28;20032;-72
2021/05/22 00:16:25;;;;;;;1.77;1.65;;;13.70;76.80;;;;;;2097522;28;20052;-71
2021/05/22 00:17:26;;;;;;;2.97;1.70;;;13.70;76.80;;;;;;2098178;28;20051;-72
2021/05/22 00:18:27;;;;;;;2.22;1.73;;;13.60;76.90;;;;;;2097916;28;20043;-73
2021/05/22 00:19:27;;;;;;;3.50;2.03;;;13.70;77.00;;;;;;2088706;28;20032;-73
2021/05/22 00:20:28;;;;;;;2.72;1.80;;;13.70;77.00;;;;;;2089665;28;20033;-72
2021/05/22 00:21:29;;;;;;;3.85;1.80;;;13.70;77.00;;;;;;2098716;28;20020;-72
2021/05/22 00:22:30;;;;;;;2.08;1.88;;;13.70;77.00;;;;;;2097548;28;20077;-70
2021/05/22 00:23:31;;;;;;;1.92;1.77;;;13.70;77.00;;;;;;2096837;28;20028;-72
2021/05/22 00:24:57;;;;;;;1.95;1.77;;;13.60;77.00;;;;;;2098744;28;20487;-71
2021/05/22 00:25:58;;;;;;;1.85;1.75;;;13.70;77.00;;;;;;2098220;28;20024;-72
2021/05/22 00:26:58;;;;;;;2.95;1.80;;;13.70;77.00;;;;;;2081165;28;20136;-71
2021/05/22 00:27:59;;;;;;;2.33;1.80;;;13.70;76.70;;;;;;2080524;28;20060;-70
2021/05/22 00:29:02;;;;;;;2.28;1.90;;;13.70;76.10;;;;;;2097733;28;20020;-72
2021/05/22 00:30:07;;;;;;;1.85;1.70;;;13.70;76.00;;;;;;2097888;28;20020;-69
2021/05/22 00:31:08;;;;;;;2.20;1.70;;;13.70;76.20;;;;;;2098054;28;20057;-73
2021/05/22 00:32:09;;;;;;;2.10;1.90;;;13.70;75.70;;;;;;2089429;28;20033;-69
2021/05/22 00:33:09;;;;;;;2.17;1.58;;;13.70;75.60;;;;;;2089523;28;20040;-69
2021/05/22 00:34:10;;;;;;;2.22;1.80;;;13.70;75.80;;;;;;2097827;28;20032;-70
2021/05/22 00:35:11;;;;;;;1.77;1.60;;;13.70;75.90;;;;;;2097994;28;20373;-70
2021/05/22 00:36:11;;;;;;;1.92;1.65;;;13.80;76.00;;;;;;2088633;28;20752;-69
2021/05/22 00:37:12;;;;;;;2.28;1.60;;;13.80;76.10;;;;;;2086928;28;20112;-71
2021/05/22 00:38:13;;;;;;;2.47;1.70;;;13.80;76.10;;;;;;2080876;28;20040;-70
2021/05/22 00:39:13;;;;;;;1.98;1.65;;;13.80;76.10;;;;;;2072429;28;20033;-70
2021/05/22 00:40:15;;;;;;;2.15;1.73;;;13.80;76.00;;;;;;2080993;28;20424;-69
2021/05/22 00:41:15;;;;;;;2.33;1.40;;;13.80;75.60;;;;;;2080766;28;20033;-69
2021/05/22 00:42:16;;;;;;;1.98;1.67;;;13.80;75.70;;;;;;2089493;28;20028;-69
2021/05/22 00:43:17;;;;;;;2.03;1.60;;;13.80;75.60;;;;;;2080444;28;20112;-71
2021/05/22 00:44:17;;;;;;;2.33;1.50;;;13.80;75.50;;;;;;2080388;28;20472;-71
2021/05/22 00:45:20;;;;;;;2.45;1.70;;;13.80;75.50;;;;;;2089159;28;20136;-71
2021/05/22 00:46:21;;;;;;;2.10;1.60;;;13.80;75.50;;;;;;2088701;28;20032;-70
2021/05/22 00:47:23;;;;;;;3.42;1.73;;;13.80;75.40;;;;;;2080200;28;20036;-71
2021/05/22 00:48:24;;;;;;;2.03;1.75;;;13.80;75.10;;;;;;2080364;28;20105;-72
2021/05/22 00:49:25;;;;;;;3.78;2.00;;;13.80;75.00;;;;;;2089108;28;20484;-71
2021/05/22 00:50:32;;;;;;;4.80;1.98;;;13.80;75.00;;;;;;2089161;28;20029;-70
2021/05/22 00:51:35;;;;;;;4.07;1.92;;;13.80;75.20;;;;;;2080394;28;20030;-70
2021/05/22 00:52:36;;;;;;;2.97;1.98;;;13.80;74.70;;;;;;2080470;28;20520;-70
2021/05/22 00:53:36;;;;;;;2.05;1.80;;;13.80;74.70;;;;;;2080095;28;20404;-71
2021/05/22 00:54:37;;;;;;;3.40;1.88;;;13.70;74.80;;;;;;2080205;28;20021;-70
2021/05/22 00:55:38;;;;;;;2.25;1.70;;;13.80;74.90;;;;;;2080018;28;20044;-71
2021/05/22 00:56:39;;;;;;;3.38;2.00;;;13.80;74.80;;;;;;2079687;28;20681;-71
2021/05/22 00:57:40;;;;;;;3.58;1.92;;;13.80;74.90;;;;;;2080141;28;20025;-70
2021/05/22 00:58:42;;;;;;;2.38;1.80;;;13.80;75.20;;;;;;2089002;28;20033;-71
2021/05/22 00:59:43;;;;;;;2.53;1.80;;;13.80;75.00;;;;;;2089075;28;20033;-70
2021/05/22 01:00:48;;;;;;;2.28;1.90;;;13.70;75.00;;;;;;2089481;28;20108;-71
2021/05/22 01:01:50;;;;;;;2.10;1.90;;;13.70;74.90;;;;;;2089040;28;20025;-70
2021/05/22 01:02:51;;;;;;;4.60;2.00;;;13.70;75.10;;;;;;2089212;28;20037;-71
2021/05/22 01:03:53;;;;;;;3.05;1.80;;;13.80;75.00;;;;;;2088922;28;20483;-71
2021/05/22 01:04:56;;;;;;;2.95;1.77;;;13.70;74.90;;;;;;2089044;28;20082;-71
2021/05/22 01:06:12;;;;;;;1.90;1.70;;;13.70;74.80;;;;;;2088658;28;20025;-71
2021/05/22 01:07:13;;;;;;;2.63;1.70;;;13.80;75.00;;;;;;2096088;28;20028;-71
2021/05/22 01:08:24;;;;;;;1.90;1.70;;;13.80;75.10;;;;;;2097298;28;20020;-70
2021/05/22 01:09:25;;;;;;;1.60;1.50;;;13.70;75.30;;;;;;2097349;28;20095;-72
2021/05/22 01:10:26;;;;;;;1.80;1.70;;;13.80;75.80;;;;;;2097218;28;20032;-71
2021/05/22 01:11:43;;;;;;;2.35;1.75;;;13.80;76.10;;;;;;2097591;28;20759;-71
2021/05/22 01:12:47;;;;;;;1.85;1.50;;;13.70;76.00;;;;;;2088639;28;20079;-70
2021/05/22 01:14:03;;;;;;;2.05;1.73;;;13.70;75.90;;;;;;2089096;28;20029;-72
2021/05/22 01:15:10;;;;;;;2.05;1.65;;;13.70;75.90;;;;;;2088454;28;20025;-71
2021/05/22 01:16:11;;;;;;;1.67;1.58;;;13.70;76.10;;;;;;2089029;28;20120;-71
2021/05/22 01:17:16;;;;;;;3.97;1.90;;;13.70;75.80;;;;;;2088314;28;20116;-70
2021/05/22 01:18:17;;;;;;;2.63;1.83;;;13.70;75.00;;;;;;2080834;28;20052;-69
2021/05/22 01:19:59;;;;;;;2.30;1.70;;;13.60;74.40;;;;;;2088579;28;20043;-72
2021/05/22 01:21:02;;;;;;;2.20;1.73;;;13.70;74.60;;;;;;2097361;28;20135;-72
2021/05/22 01:22:04;;;;;;;1.90;1.75;;;13.70;74.60;;;;;;2097635;28;20029;-73
2021/05/22 01:23:10;;;;;;;2.65;1.60;;;13.70;74.40;;;;;;2098150;28;20058;-73
2021/05/22 01:24:12;;;;;;;1.90;1.67;;;13.70;74.60;;;;;;2088714;28;20068;-72
2021/05/22 01:25:32;;;;;;;1.65;1.55;;;13.70;74.50;;;;;;2088830;28;20017;-70
2021/05/22 01:26:33;;;;;;;1.90;1.77;;;13.60;74.50;;;;;;2087955;28;20137;-71
2021/05/22 01:27:35;;;;;;;2.05;1.80;;;13.70;74.20;;;;;;2088426;28;20670;-71
2021/05/22 01:28:36;;;;;;;3.15;1.75;;;13.60;74.10;;;;;;2097256;28;20510;-71
2021/05/22 01:29:36;;;;;;;3.50;1.75;;;13.60;74.30;;;;;;2088515;28;20090;-71
2021/05/22 01:30:38;;;;;;;2.28;1.83;;;13.60;74.70;;;;;;2088351;28;20440;-72
2021/05/22 01:31:39;;;;;;;1.60;1.50;;;13.60;74.80;;;;;;2097194;28;20017;-71
2021/05/22 01:32:39;;;;;;;2.17;1.77;;;13.60;75.10;;;;;;2097347;28;20423;-71
2021/05/22 01:33:40;;;;;;;1.67;1.50;;;13.60;75.30;;;;;;2097064;28;20037;-72
2021/05/22 01:34:41;;;;;;;2.10;1.88;;;13.60;75.60;;;;;;2096896;28;20398;-71
2021/05/22 01:35:42;;;;;;;2.80;1.70;;;13.60;75.70;;;;;;2088943;28;20560;-73
2021/05/22 01:36:43;;;;;;;4.30;1.90;;;13.60;75.00;;;;;;2081319;28;20034;-72
2021/05/22 01:37:43;;;;;;;2.00;1.80;;;13.60;74.80;;;;;;2088966;28;20032;-72
2021/05/22 01:38:48;;;;;;;2.85;2.10;;;13.60;74.80;;;;;;2098552;28;20028;-72
2021/05/22 01:39:49;;;;;;;2.70;1.80;;;13.60;74.80;;;;;;2097532;28;20513;-71
2021/05/22 01:40:50;;;;;;;2.53;1.90;;;13.60;75.10;;;;;;2097682;28;20060;-72
2021/05/22 01:41:51;;;;;;;2.72;1.70;;;13.60;75.20;;;;;;2097695;28;20036;-72
2021/05/22 01:42:52;;;;;;;2.53;1.88;;;13.50;75.40;;;;;;2097510;28;20062;-75
2021/05/22 01:43:58;;;;;;;2.40;1.90;;;13.50;75.70;;;;;;2097598;28;20048;-72
2021/05/22 01:45:01;;;;;;;2.25;1.80;;;13.50;75.70;;;;;;2097771;28;20507;-70
2021/05/22 01:46:02;;;;;;;2.53;1.70;;;13.50;75.80;;;;;;2097633;28;20032;-73
2021/05/22 01:47:06;;;;;;;1.92;1.70;;;13.50;76.10;;;;;;2088428;28;20630;-70
2021/05/22 01:48:10;;;;;;;2.70;2.00;;;13.50;76.30;;;;;;2088576;28;20075;-71
2021/05/22 01:49:13;;;;;;;2.10;1.90;;;13.40;76.20;;;;;;2088181;28;20033;-69
2021/05/22 01:50:16;;;;;;;2.70;1.90;;;13.40;76.50;;;;;;2088789;28;20025;-70
2021/05/22 01:51:20;;;;;;;3.50;2.00;;;13.40;75.80;;;;;;2097028;28;20020;-70
2021/05/22 01:52:47;;;;;;;1.98;1.80;;;13.40;75.50;;;;;;2085948;28;20028;-70
2021/05/22 01:53:48;;;;;;;2.08;1.80;;;13.40;76.00;;;;;;2088078;28;20037;-70
2021/05/22 01:54:51;;;;;;;2.10;1.90;;;13.40;76.30;;;;;;2079912;28;20064;-70
2021/05/22 01:55:52;;;;;;;2.65;2.00;;;13.40;76.50;;;;;;2088065;28;20507;-71
2021/05/22 01:56:54;;;;;;;2.28;1.60;;;13.40;76.50;;;;;;2096911;28;20426;-70
2021/05/22 01:57:55;;;;;;;3.65;1.80;;;13.40;76.70;;;;;;2097192;28;20032;-70
2021/05/22 01:58:55;;;;;;;2.00;1.80;;;13.40;76.80;;;;;;2088287;28;20021;-71
2021/05/22 01:59:57;;;;;;;1.83;1.70;;;13.40;76.90;;;;;;2088086;28;20033;-71
2021/05/22 02:00:58;;;;;;;2.03;1.60;;;13.40;77.00;;;;;;2097059;28;20765;-71
2021/05/22 02:01:58;;;;;;;2.35;1.80;;;13.40;77.30;;;;;;2088201;28;20041;-71
2021/05/22 02:03:33;;;;;;;2.40;1.80;;;13.40;77.30;;;;;;2088191;28;20116;-71
2021/05/22 02:04:36;;;;;;;2.35;1.80;;;13.30;77.40;;;;;;2097313;28;20527;-71
2021/05/22 02:05:38;;;;;;;2.10;1.90;;;13.30;77.40;;;;;;2097331;28;20021;-71
2021/05/22 02:06:42;;;;;;;2.08;1.60;;;13.30;77.50;;;;;;2086649;28;20036;-71
2021/05/22 02:07:45;;;;;;;1.80;1.70;;;13.30;77.40;;;;;;2082613;28;20515;-72
2021/05/22 02:08:50;;;;;;;3.08;1.80;;;13.30;77.40;;;;;;2088645;28;20666;-71
2021/05/22 02:09:53;;;;;;;1.80;1.70;;;13.30;77.50;;;;;;2097012;28;20024;-72
2021/05/22 02:10:54;;;;;;;2.78;1.80;;;13.30;77.30;;;;;;2096814;28;20543;-71
2021/05/22 02:11:55;;;;;;;2.17;1.98;;;13.30;77.30;;;;;;2096956;28;20023;-71
2021/05/22 02:12:57;;;;;;;3.47;1.80;;;13.40;76.60;;;;;;2096792;28;20475;-71
2021/05/22 02:14:01;;;;;;;3.88;1.90;;;13.40;76.70;;;;;;2096875;28;20028;-72
2021/05/22 02:15:03;;;;;;;2.80;2.05;;;13.40;76.40;;;;;;2097170;28;20037;-71
2021/05/22 02:16:31;;;;;;;1.70;1.60;;;13.40;76.60;;;;;;2096965;28;20060;-72
2021/05/22 02:17:32;;;;;;;1.70;1.60;;;13.40;77.10;;;;;;2097122;28;20024;-69
2021/05/22 02:18:35;;;;;;;3.28;1.65;;;13.40;77.30;;;;;;2097154;28;20046;-71
2021/05/22 02:19:37;;;;;;;2.13;1.75;;;13.40;77.10;;;;;;2097256;28;20059;-69
2021/05/22 02:20:38;;;;;;;2.45;1.80;;;13.40;76.80;;;;;;2097400;28;20530;-69
2021/05/22 02:21:42;;;;;;;2.67;1.88;;;13.40;76.40;;;;;;2088703;28;20167;-70
2021/05/22 02:22:44;;;;;;;3.45;1.90;;;13.40;76.30;;;;;;2090003;28;20129;-73
2021/05/22 02:23:46;;;;;;;3.75;1.80;;;13.40;76.00;;;;;;2098747;28;20040;-72
2021/05/22 02:24:50;;;;;;;2.17;1.90;;;13.40;76.40;;;;;;2088535;28;20613;-71
2021/05/22 02:25:58;;;;;;;2.58;1.67;;;13.40;76.50;;;;;;2089103;28;20532;-72
2021/05/22 02:27:01;;;;;;;1.70;1.60;;;13.40;76.20;;;;;;2097172;28;20131;-69
2021/05/22 02:28:04;;;;;;;2.15;1.80;;;13.40;76.40;;;;;;2097138;28;20082;-68
2021/05/22 02:29:09;;;;;;;1.83;1.70;;;13.40;76.90;;;;;;2097093;28;20025;-69
2021/05/22 02:30:13;;;;;;;2.10;1.80;;;13.40;76.90;;;;;;2088171;28;20377;-69
2021/05/22 02:31:15;;;;;;;4.55;1.98;;;13.40;76.30;;;;;;2088295;28;20134;-68
2021/05/22 02:32:18;;;;;;;4.03;1.80;;;13.40;75.50;;;;;;2096768;28;20411;-69
2021/05/22 02:33:19;;;;;;;2.50;1.75;;;13.40;75.80;;;;;;2087813;28;20043;-69
2021/05/22 02:34:30;;;;;;;2.22;1.90;;;13.40;76.10;;;;;;2079779;28;20080;-69
2021/05/22 02:35:32;;;;;;;2.40;1.67;;;13.40;76.30;;;;;;2087865;28;20033;-70
2021/05/22 02:36:34;;;;;;;4.03;2.35;;;13.50;76.50;;;;;;2079572;28;20091;-69
2021/05/22 02:37:36;;;;;;;4.95;2.60;;;13.40;76.00;;;;;;2079777;28;20064;-71
2021/05/22 02:38:48;;;;;;;5.55;2.60;;;13.40;75.90;;;;;;2087963;28;20040;-70
2021/05/22 02:39:51;;;;;;;8.18;3.25;;;13.50;76.30;;;;;;2096744;28;20035;-70
2021/05/22 02:40:56;;;;;;;7.10;3.42;;;13.50;76.20;;;;;;2088131;28;20115;-70
2021/05/22 02:41:59;;;;;;;7.50;3.53;;;13.50;76.20;;;;;;2088566;28;20897;-70
2021/05/22 02:43:07;;;;;;;6.93;3.47;;;13.50;76.40;;;;;;2087898;28;20037;-71
2021/05/22 02:44:09;;;;;;;9.65;4.38;;;13.50;76.50;;;;;;2088938;28;20033;-70
2021/05/22 02:45:12;;;;;;;11.35;4.22;;;13.50;76.20;;;;;;2096960;28;20035;-69
2021/05/22 02:46:41;;;;;;;9.63;4.47;;;13.50;75.80;;;;;;2097361;28;20108;-70
2021/05/22 02:47:45;;;;;;;5.70;2.65;;;13.50;76.00;;;;;;2098579;28;20055;-70
2021/05/22 02:48:48;;;;;;;5.43;2.85;;;13.40;75.70;;;;;;2098541;28;20025;-70
2021/05/22 02:49:49;;;;;;;4.43;2.67;;;13.40;76.10;;;;;;2098648;28;20824;-69
2021/05/22 02:50:51;;;;;;;4.82;2.35;;;13.50;75.90;;;;;;2098494;28;20024;-70
2021/05/22 02:51:55;;;;;;;3.25;2.10;;;13.40;75.80;;;;;;2089659;28;20057;-70
2021/05/22 02:53:23;;;;;;;2.28;1.83;;;13.40;75.80;;;;;;2093778;28;20033;-70
2021/05/22 02:54:26;;;;;;;3.35;2.22;;;13.40;75.80;;;;;;2098330;28;20107;-70
2021/05/22 02:55:28;;;;;;;3.85;2.10;;;13.40;75.50;;;;;;2098468;28;20047;-70
2021/05/22 02:56:31;;;;;;;3.22;2.00;;;13.40;75.60;;;;;;2098370;28;20067;-70
2021/05/22 02:57:33;;;;;;;3.40;1.95;;;13.40;75.40;;;;;;2089406;28;20021;-70
2021/05/22 02:58:40;;;;;;;2.92;1.90;;;13.40;75.70;;;;;;2089609;28;20021;-70
2021/05/22 02:59:45;;;;;;;2.05;1.85;;;13.40;75.60;;;;;;2098367;28;20043;-70
2021/05/22 03:00:47;;;;;;;1.90;1.70;;;13.40;75.80;;;;;;2089852;28;20095;-69
2021/05/22 03:01:48;;;;;;;2.95;1.83;;;13.40;75.90;;;;;;2089847;28;20021;-70
2021/05/22 03:02:49;;;;;;;3.88;2.30;;;13.40;76.00;;;;;;2089490;28;20025;-70
2021/05/22 03:03:50;;;;;;;3.28;1.75;;;13.50;75.50;;;;;;2080921;28;20403;-70
2021/05/22 03:04:51;;;;;;;3.20;1.92;;;13.40;75.70;;;;;;2081742;28;20486;-70
2021/05/22 03:05:52;;;;;;;3.35;1.80;;;13.40;76.70;;;;;;2089891;28;20033;-70
2021/05/22 03:06:53;;;;;;;2.47;1.65;;;13.40;75.90;;;;;;2097483;28;20020;-70
2021/05/22 03:07:53;;;;;;;2.20;1.77;;;13.40;76.00;;;;;;2081438;28;20104;-69
2021/05/22 03:08:54;;;;;;;2.83;1.70;;;13.40;75.60;;;;;;2080940;28;20025;-71
2021/05/22 03:09:54;;;;;;;2.15;1.67;;;13.40;75.40;;;;;;2098182;28;20372;-70
2021/05/22 03:10:56;;;;;;;2.15;1.80;;;13.40;75.60;;;;;;2098208;28;20036;-70
2021/05/22 03:11:56;;;;;;;2.33;1.70;;;13.40;75.50;;;;;;2098161;28;20066;-70
2021/05/22 03:12:57;;;;;;;2.30;1.55;;;13.40;75.70;;;;;;2098135;28;20033;-70
2021/05/22 03:13:59;;;;;;;3.28;1.80;;;13.40;75.90;;;;;;2098178;28;20116;-70
2021/05/22 03:15:00;;;;;;;4.10;1.70;;;13.40;75.80;;;;;;2098219;28;20036;-70
2021/05/22 03:16:01;;;;;;;3.20;1.60;;;13.40;75.60;;;;;;2097623;28;20025;-70
2021/05/22 03:17:02;;;;;;;2.22;1.70;;;13.40;75.40;;;;;;2098203;28;20781;-69
2021/05/22 03:18:02;;;;;;;2.28;1.77;;;13.40;75.60;;;;;;2098181;28;20063;-71
2021/05/22 03:19:05;;;;;;;1.88;1.60;;;13.40;75.80;;;;;;2089256;28;20033;-70
2021/05/22 03:20:06;;;;;;;4.88;1.52;;;13.40;75.90;;;;;;2089399;28;20025;-70
2021/05/22 03:21:08;;;;;;;3.15;1.63;;;13.40;76.00;;;;;;2098178;28;20070;-70
2021/05/22 03:22:09;;;;;;;3.17;1.70;;;13.40;76.30;;;;;;2098169;28;20107;-70
2021/05/22 03:23:10;;;;;;;2.83;1.90;;;13.40;76.30;;;;;;2089129;28;20436;-70
2021/05/22 03:24:12;;;;;;;2.15;1.60;;;13.40;76.50;;;;;;2089269;28;20060;-70
2021/05/22 03:25:13;;;;;;;2.35;1.70;;;13.40;76.10;;;;;;2089159;28;20032;-70
2021/05/22 03:26:14;;;;;;;3.67;1.75;;;13.40;76.20;;;;;;2080696;28;20036;-70
2021/05/22 03:27:15;;;;;;;3.42;1.75;;;13.40;76.10;;;;;;2089222;28;20103;-70
2021/05/22 03:28:16;;;;;;;2.13;1.60;;;13.40;76.00;;;;;;2080904;28;20029;-69
2021/05/22 03:29:17;;;;;;;1.60;1.50;;;13.40;76.20;;;;;;2089437;28;20040;-71
2021/05/22 03:30:18;;;;;;;2.58;1.50;;;13.50;75.90;;;;;;2098069;28;20055;-70
2021/05/22 03:31:18;;;;;;;1.70;1.58;;;13.40;75.80;;;;;;2098081;28;20063;-69
2021/05/22 03:32:20;;;;;;;1.60;1.50;;;13.50;75.70;;;;;;2089232;28;20114;-70
2021/05/22 03:33:21;;;;;;;1.88;1.67;;;13.50;75.80;;;;;;2089457;28;20464;-70
2021/05/22 03:34:21;;;;;;;2.05;1.30;;;13.50;75.70;;;;;;2098139;28;20121;-70
2021/05/22 03:35:22;;;;;;;2.50;1.70;;;13.50;75.80;;;;;;2089245;28;20033;-70
2021/05/22 03:36:24;;;;;;;1.40;1.30;;;13.50;76.00;;;;;;2088175;28;20029;-70
2021/05/22 03:37:25;;;;;;;1.60;1.50;;;13.50;75.70;;;;;;2098053;28;20023;-70
2021/05/22 03:38:25;;;;;;;2.17;1.65;;;13.50;75.70;;;;;;2089143;28;20573;-71
2021/05/22 03:39:26;;;;;;;3.28;1.70;;;13.40;75.80;;;;;;2089251;28;20033;-70
2021/05/22 03:40:27;;;;;;;1.98;1.40;;;13.40;75.90;;;;;;2098242;28;20538;-70
2021/05/22 03:41:27;;;;;;;1.63;1.52;;;13.50;75.90;;;;;;2098034;28;20020;-70
2021/05/22 03:42:28;;;;;;;2.00;1.55;;;13.50;76.10;;;;;;2097878;28;20077;-70
2021/05/22 03:43:29;;;;;;;2.13;1.42;;;13.40;75.90;;;;;;2089130;28;20028;-70
2021/05/22 03:44:29;;;;;;;1.63;1.40;;;13.50;75.90;;;;;;2089228;28;20025;-71
2021/05/22 03:45:31;;;;;;;1.50;1.40;;;13.50;76.00;;;;;;2100027;28;20365;-71
2021/05/22 03:46:32;;;;;;;1.70;1.60;;;13.50;76.10;;;;;;2099905;28;20471;-70
2021/05/22 03:47:33;;;;;;;1.80;1.50;;;13.50;76.30;;;;;;2105516;28;20051;-70
2021/05/22 03:48:34;;;;;;;2.38;1.40;;;13.50;76.60;;;;;;2104715;28;20436;-70
2021/05/22 03:49:35;;;;;;;1.85;1.52;;;13.50;76.70;;;;;;2104232;28;20171;-70
2021/05/22 03:50:35;;;;;;;1.45;1.35;;;13.50;76.80;;;;;;2091549;28;20024;-70
2021/05/22 03:51:36;;;;;;;1.40;1.30;;;13.50;76.90;;;;;;2089452;28;20033;-70
2021/05/22 03:52:37;;;;;;;1.70;1.42;;;13.40;77.00;;;;;;2098032;28;20629;-70
2021/05/22 03:53:38;;;;;;;2.10;1.67;;;13.50;77.20;;;;;;2098053;28;20028;-71
2021/05/22 03:54:38;;;;;;;2.25;1.55;;;13.40;76.70;;;;;;2097970;28;20112;-70
2021/05/22 03:55:40;;;;;;;3.63;1.65;;;13.40;76.70;;;;;;2097965;28;20712;-72
2021/05/22 03:56:40;;;;;;;3.22;1.63;;;13.40;75.80;;;;;;2097864;28;20033;-71
2021/05/22 03:57:41;;;;;;;2.05;1.60;;;13.40;75.80;;;;;;2097776;28;20056;-71
2021/05/22 03:58:42;;;;;;;2.30;1.52;;;13.40;76.00;;;;;;2088880;28;20095;-70
2021/05/22 03:59:43;;;;;;;2.35;1.58;;;13.50;76.40;;;;;;2088960;28;20033;-71
2021/05/22 04:00:45;;;;;;;1.63;1.40;;;13.40;76.80;;;;;;2097797;28;20025;-71
2021/05/22 04:01:45;;;;;;;1.60;1.50;;;13.50;77.10;;;;;;2097882;28;20028;-71
2021/05/22 04:02:46;;;;;;;1.95;1.42;;;13.40;77.20;;;;;;2097684;28;20074;-71
2021/05/22 04:03:47;;;;;;;1.55;1.45;;;13.50;77.40;;;;;;2097759;28;20044;-69
2021/05/22 04:04:48;;;;;;;1.40;1.30;;;13.50;77.50;;;;;;2097846;28;20064;-72
2021/05/22 04:05:48;;;;;;;1.88;1.50;;;13.50;77.60;;;;;;2088863;28;20024;-67
2021/05/22 04:06:49;;;;;;;1.33;1.23;;;13.50;77.50;;;;;;2087531;28;20021;-72
2021/05/22 04:07:50;;;;;;;1.50;1.40;;;13.50;77.40;;;;;;2088757;28;20021;-71
2021/05/22 04:08:52;;;;;;;1.88;1.58;;;13.50;77.50;;;;;;2089123;28;20029;-71
2021/05/22 04:09:53;;;;;;;1.60;1.50;;;13.50;77.60;;;;;;2097716;28;20021;-71
2021/05/22 04:10:53;;;;;;;1.40;1.30;;;13.50;77.70;;;;;;2088854;28;20021;-71
2021/05/22 04:11:54;;;;;;;1.60;1.50;;;13.50;77.80;;;;;;2088967;28;20798;-71
2021/05/22 04:12:55;;;;;;;1.50;1.40;;;13.50;78.00;;;;;;2097518;28;20020;-72
2021/05/22 04:13:55;;;;;;;1.83;1.60;;;13.50;78.20;;;;;;2097757;28;20032;-72
2021/05/22 04:14:56;;;;;;;1.83;1.50;;;13.50;78.40;;;;;;2097772;28;20109;-71
2021/05/22 04:15:57;;;;;;;1.90;1.75;;;13.50;78.60;;;;;;2097441;28;20039;-69
2021/05/22 04:16:57;;;;;;;1.90;1.70;;;13.50;78.60;;;;;;2097700;28;20040;-72
2021/05/22 04:17:58;;;;;;;1.70;1.60;;;13.50;78.80;;;;;;2097669;28;20616;-69
2021/05/22 04:19:00;;;;;;;1.75;1.65;;;13.50;78.80;;;;;;2088772;28;20527;-70
2021/05/22 04:20:00;;;;;;;2.00;1.80;;;13.50;78.60;;;;;;2089108;28;20112;-72
2021/05/22 04:21:02;;;;;;;2.45;1.73;;;13.50;78.30;;;;;;2097608;28;20028;-72
2021/05/22 04:22:03;;;;;;;1.75;1.65;;;13.50;78.30;;;;;;2088725;28;20025;-71
2021/05/22 04:23:04;;;;;;;1.90;1.55;;;13.50;78.40;;;;;;2088660;28;20577;-72
2021/05/22 04:24:05;;;;;;;1.52;1.42;;;13.40;78.60;;;;;;2088718;28;20037;-72
2021/05/22 04:25:06;;;;;;;1.50;1.40;;;13.50;78.70;;;;;;2088740;28;20029;-72
2021/05/22 04:26:07;;;;;;;2.35;1.60;;;13.50;78.70;;;;;;2097374;28;20161;-72
2021/05/22 04:27:33;;;;;;;2.00;1.80;;;13.50;78.50;;;;;;2098003;28;20067;-71
2021/05/22 04:28:36;;;;;;;2.53;1.70;;;13.50;78.30;;;;;;2097763;28;20029;-69
2021/05/22 04:29:37;;;;;;;2.33;1.92;;;13.50;78.00;;;;;;2097516;28;20028;-70
2021/05/22 04:30:37;;;;;;;2.17;1.85;;;13.50;77.90;;;;;;2097417;28;20557;-69
2021/05/22 04:31:38;;;;;;;2.20;2.00;;;13.50;77.90;;;;;;2088682;28;20087;-70
2021/05/22 04:32:39;;;;;;;2.40;1.90;;;13.50;77.80;;;;;;2088571;28;20100;-69
2021/05/22 04:33:39;;;;;;;2.35;2.10;;;13.50;77.60;;;;;;2097535;28;20036;-69
2021/05/22 04:34:40;;;;;;;2.10;1.80;;;13.50;77.50;;;;;;2097476;28;20020;-69
2021/05/22 04:35:40;;;;;;;2.08;1.90;;;13.50;77.60;;;;;;2097430;28;20056;-71
2021/05/22 04:36:41;;;;;;;2.47;1.92;;;13.50;77.50;;;;;;2096230;28;20144;-68
2021/05/22 04:37:42;;;;;;;2.78;2.40;;;13.50;77.30;;;;;;2097865;28;20063;-71
2021/05/22 04:38:43;;;;;;;2.80;2.30;;;13.50;77.30;;;;;;2097638;28;20040;-68
2021/05/22 04:39:44;;;;;;;3.40;2.20;;;13.50;77.50;;;;;;2097533;28;20027;-69
2021/05/22 04:40:45;;;;;;;3.50;2.50;;;13.50;77.50;;;;;;2088988;28;20036;-70
2021/05/22 04:41:46;;;;;;;3.42;2.30;;;13.50;77.70;;;;;;2080515;28;20107;-69
2021/05/22 04:42:46;;;;;;;2.42;2.20;;;13.50;77.70;;;;;;2088603;28;20025;-69
2021/05/22 04:43:47;;;;;;;3.75;2.10;;;13.50;77.40;;;;;;2097777;28;20024;-67
2021/05/22 04:44:48;;;;;;;6.30;2.50;;;13.60;77.60;;;;;;2088484;28;20064;-70
2021/05/22 04:45:48;;;;;;;3.45;2.20;;;13.60;77.30;;;;;;2088852;28;20087;-77
2021/05/22 04:46:49;;;;;;;2.83;2.10;;;13.60;76.90;;;;;;2097138;28;20032;-69
2021/05/22 04:47:50;;;;;;;2.25;1.92;;;13.60;76.70;;;;;;2088684;28;20458;-71
2021/05/22 04:48:51;;;;;;;3.40;2.17;;;13.60;76.70;;;;;;2088791;28;20025;-72
2021/05/22 04:49:52;;;;;;;3.00;2.00;;;13.60;77.00;;;;;;2097469;28;20111;-70
2021/05/22 04:50:54;;;;;;;2.25;2.00;;;13.70;77.20;;;;;;2088566;28;20029;-71
2021/05/22 04:51:55;;;;;;;3.15;2.15;;;13.70;77.50;;;;;;2088947;28;20032;-72
2021/05/22 04:52:56;;;;;;;4.15;2.40;;;13.70;78.10;;;;;;2088559;28;20017;-70
2021/05/22 04:54:10;;;;;;;2.40;2.10;;;13.80;79.10;;;;;;2088852;28;20063;-69
2021/05/22 04:55:11;;;;;;;2.28;1.90;;;13.80;78.40;;;;;;2097853;28;20075;-71
2021/05/22 04:56:11;;;;;;;2.33;2.00;;;13.90;77.50;;;;;;2097788;28;20494;-71
2021/05/22 04:57:12;;;;;;;2.38;1.90;;;13.90;77.00;;;;;;2097983;28;20034;-71
2021/05/22 04:58:12;;;;;;;3.17;2.20;;;13.90;77.10;;;;;;2097805;28;20614;-70
2021/05/22 04:59:13;;;;;;;2.28;2.03;;;13.90;77.30;;;;;;2097587;28;20037;-70
2021/05/22 05:00:16;;;;;;;3.72;2.22;;;13.90;77.50;;;;;;2097390;28;20021;-71
2021/05/22 05:01:16;;;;;;;2.30;2.10;;;14.00;77.20;;;;;;2097773;28;20484;-69
2021/05/22 05:02:17;;;;;;;3.30;2.10;;;13.90;77.00;;;;;;2088586;28;20087;-70
2021/05/22 05:03:18;;;;;;;2.95;2.38;;;13.90;76.90;;;;;;2088908;28;20029;-68
2021/05/22 05:04:19;;;;;;;4.00;2.35;;;13.90;76.70;;;;;;2097414;28;20088;-68
2021/05/22 05:05:19;;;;;;;5.15;1.95;;;14.00;77.00;;;;;;2097560;28;20024;-68
2021/05/22 05:06:20;;;;;;;2.80;1.90;;;14.00;75.20;;;;;;2097094;28;20024;-68
2021/05/22 05:07:21;;;;;;;3.70;1.90;;;14.00;74.60;;;;;;2097264;28;20028;-68
2021/05/22 05:08:22;;;;;;;2.45;2.05;;;14.00;75.10;;;;;;2097805;28;20024;-68
2021/05/22 05:09:23;;;;;;;1.77;1.67;;;14.00;75.60;;;;;;2097272;28;20031;-72
2021/05/22 05:10:24;;;;;;;2.10;1.90;;;14.00;75.70;;;;;;2097697;28;20090;-68
2021/05/22 05:11:25;;;;;;;2.00;1.77;;;14.10;75.40;;;;;;2088986;28;20082;-69
2021/05/22 05:12:25;;;;;;;2.70;1.90;;;14.10;75.20;;;;;;2088872;28;20013;-70
2021/05/22 05:13:26;;;;;;;3.28;2.00;;;14.20;75.10;;;;;;2097450;28;20176;-69
2021/05/22 05:14:27;;;;;;;3.10;1.70;;;14.20;74.20;;;;;;2088543;28;20033;-70
2021/05/22 05:15:28;;;;;;;2.33;1.90;;;14.20;73.50;;;;;;2088787;28;20060;-68
2021/05/22 05:16:32;;;;;;;3.00;2.00;;;14.20;73.80;;;;;;2097130;28;20033;-67
2021/05/22 05:17:33;;;;;;;2.00;1.80;;;14.20;74.00;;;;;;2097702;28;20043;-73
2021/05/22 05:18:35;;;;;;;2.95;2.10;;;14.30;74.10;;;;;;2097624;28;20032;-71
2021/05/22 05:19:36;;;;;;;2.92;1.75;;;14.30;74.10;;;;;;2097565;28;20024;-69
2021/05/22 05:20:37;;;;;;;2.75;2.20;;;14.30;73.90;;;;;;2097737;28;20123;-67
2021/05/22 05:21:37;;;;;;;2.90;1.90;;;14.30;73.80;;;;;;2098015;28;20100;-70
2021/05/22 05:22:38;;;;;;;2.97;2.20;;;14.30;74.10;;;;;;2088964;28;20495;-71
2021/05/22 05:23:38;;;;;;;3.33;1.83;;;14.20;73.40;;;;;;2088986;28;20033;-71
2021/05/22 05:24:39;;;;;;;3.25;1.98;;;14.10;73.20;;;;;;2098455;28;20107;-69
2021/05/22 05:25:39;;;;;;;3.85;2.17;;;14.10;74.40;;;;;;2098133;28;20032;-68